MMMX/MEX METAR and TAF weather

Enter ICAO airport designator
Station Type Date Time Source
MMMX METAR 2020/04/07 17:30 UTC NOAA

MMMX 071730Z 07008KT 8SM FEW020 25/06 A3042 NOSIG RMK 8/100 HZY MDT CU ARND


Station Type Date Time Source
MMMX Decoded METAR 2020/04/07 17:30 UTC NOAA

Mexico City / Licenci, Mexico (MMMX) 19-26N 099-06W
Apr 07, 2020 - 01:30 PM EDT / 2020.04.07 1730 UTC
Wind: from the ENE (070 degrees) at 9 MPH (8 KT):0
Visibility: 8 mile(s):0
Sky conditions: mostly clear
Temperature: 77 F (25 C)
Dew Point: 42 F (6 C)
Relative Humidity: 29%
Pressure (altimeter): 30.42 in. Hg (1030 hPa)
ob: MMMX 071730Z 07008KT 8SM FEW020 25/06 A3042 NOSIG RMK 8/100 HZY MDT CU ARND
cycle: 17

Station Type Date Time Source
MMMX TAF 2020/04/07 18:59 UTC NOAA

TAF MMMX 071652Z 0718/0824 12008KT P6SM SCT030 TX26/0721Z TN15/0812Z
FM072200 22015KT P6SM BKN030
TEMPO 0723/0803 5SM TSRA BKN025CB
FM080400 04005KT P6SM SCT025
TEMPO 0811/0815 BKN025
FM081800 23012KT P6SM SCT025
TEMPO 0821/0824 BKN025 VC CB

Example: see airport list